アンカレッジ/テッド・スティーブンス の空港の天気 - METARとTAF

テッド・スティーブンス・アンカレッジ国際空港 ( PANC / ANC ) - アメリカ アラスカ州アンカレッジ
飛行場実況気象(Metar)
観測時間05/26 13:53 AKDT (05/26 21:53 UTC)
風向・風速南南東 6m/s
視程10km以上
天気現象
少しの雲 雲底高度 760m
全天の4割程度の雲 雲底高度 1680m
全天の8割程度の雲 雲底高度 2130m
気温12.2℃
湿度50%
気圧1021.2hPa
METARPANC 262153Z 16011KT 10SM FEW025 SCT055 BKN070 12/02 A3015 RMK AO2 SLP212 T01220022
過去の天気等 Google飛行場航空写真 Wunderground天気予報

過去48時間のMETAR

飛行場予報(TAF)
発表時間: 5/26 12:53 AKDT (5/26 20:53 UTC)
予報対象時間: 26日13時 AKDT ~ 27日16時 AKDT
風向・風速南南東 4m/s
視程10km以上
天気現象周辺でしゅう雨
全天の8割程度の雲 雲底高度 2130m
26日15時 AKDT から
風向・風速南南西 6m/s
視程10km以上
天気現象周辺でしゅう雨
全天の4割程度の雲 雲底高度 1520m
全天の8割程度の雲 雲底高度 2130m
27日4時 AKDT から
風向・風速不定 3m/s
視程10km以上
全天の8割程度の雲 雲底高度 7620m
PANC 262053Z 2621/2724 16007KT P6SM VCSH BKN070
FM262300 20011KT P6SM VCSH SCT050 BKN070
FM271200 VRB05KT P6SM BKN250